Roe, AR (72134)

5:49 AM CST on February 07, 2016 (GMT -0600)
Stuttgart Municipal | | Change Station
CLOSE
Current Station
Airport
Location: Stuttgart,
Elevation: 223 ft
Nearby Weather Stations
Active Advisory: Flood Warning

Elev 223 ft 34.60 °N, 91.57 °W | Updated 14 minutes ago

Clear
Clear
37 °F
Feels Like 31 °F
N
8
Wind Variable Wind from South

Today
High -- | Low -- °F
--% Chance of Precip.
Yesterday
High -- | Low -- °F
Precip. -- in
Pressure 30.24 in
Visibility 10.0 miles
Clouds Clear
Windchill 31 °F
Dew Point 27 °F
Humidity 65%
Rainfall 0.00 in
Snow Depth Not available.
6:59 AM 5:40 PM
Waning Crescent, 2% visible
METAR KSGT 071135Z 19007KT 10SM CLR 03/M03 A3024 RMK AO1
Pressure 30.24 in
Visibility 10.0 miles
Clouds Clear
Windchill 31 °F
Dew Point 27 °F
Humidity 65%
Rainfall 0.00 in
Snow Depth Not available.
6:59 AM 5:40 PM
Waning Crescent, 2% visible
METAR KSGT 071135Z 19007KT 10SM CLR 03/M03 A3024 RMK AO1

10-Day Weather Forecast

Almanac

Astronomy

Feb. 07, 2016 Rise Set
Actual Time
Civil Twilight
Nautical Twilight
Astronomical Twilight
Moon
Length of Visible Light
Length of Day
Tomorrow will be .
, % of the Moon is Illuminated

Today's Extremes

State Highs State Lows

Community

WunderPhotos

Upload Photos

1,891,182 photos uploaded!

WunderBlog® & News

Nearby

Air Quality

  Air Quality AQ Index Pollutant
Not available.

Snow Depth

Station Depth Elevation

Earthquake Activity

City Distance Mag. Time & Date
Minimum magnitude displayed is 2.5.

Coastal Water Temperatures

Place Temperature

Stations

Nearby Weather Stations

Station Location Temp. Windchill Dew Point Humidity Wind Precip. Elev Updated Type
                   

Watches & Warnings

Flood Warning
Issued: 7:37 PM CST Feb. 6, 2016 – National Weather Service

The Flood Warning continues for
the White River at Clarendon.
* Until further notice... or until the warning is cancelled.
* At 7:00 PM Saturday the stage was 27.8 feet.
* Minor flooding is occurring and minor flooding is forecast.
* Flood stage is 26.0 feet.
* Forecast... the river will continue rising to near 27.8 feet by
after midnight tomorrow.
* Impacts at 28.0 feet... closure of specific flood prone regions as
determined by Arkansas game and fish commission. Some of this area
may include the mike freeze Wattensaw wma... Benson creek natural
area wma and the Sheffield Nelson Dagmar wma.



             Fld observed forecast 6 am
location stg stg day time sun Mon Tue Wed Thu

Lower White River
Clarendon 26 27.8 Sat 07 PM 27.8 27.7 27.7 27.6 27.5




Lat... Lon 3435 9119 3449 9132 3466 9139 3472 9129
3455 9120 3442 9108